Terminal Aerodrome Forecast
Issued by NWS

Home | Current Version | Previous Version | Graphics & Text | Print | Product List | Glossary On
Versions: 1 2 3 4 5 6 7 8 9 10 11 12 13
000
FTUS43 KBIS 231731
TAFJMS
TAF
KJMS 231731Z 2318/2418 17011KT P6SM SCT050
     FM232200 15012KT P6SM SCT035 BKN060
     FM240300 10008KT P6SM VCSH SCT025 OVC035
     FM240900 09010KT P6SM -RA BKN025 OVC035
     FM241500 06010KT 6SM -RA BR OVC020=

USA.gov is the U.S. government's official web portal to all federal, state and local government web resources and services.